Time;durP1;ratioP1;P1;durP2;ratioP2;P2;SDS_P1;SDS_P2;PMS_P1;PMS_P2;Temp;Humidity;BMP_temperature;BMP_pressure;BME280_temperature;BME280_humidity;BME280_pressure;Samples;Min_cycle;Max_cycle;Signal;HPM_P1;HPM_P2
2024/02/28 00:02:04;;;;;;;3.23;2.67;;;17.30;57.80;;;;;;5093364;28;20938;-81
2024/02/28 00:04:31;;;;;;;3.77;2.70;;;17.20;57.10;;;;;;5093169;28;20510;-81
2024/02/28 00:06:59;;;;;;;3.20;2.40;;;17.20;57.10;;;;;;5093029;28;20527;-91
2024/02/28 00:09:26;;;;;;;2.37;2.13;;;17.20;57.10;;;;;;5093164;28;20467;-82
2024/02/28 00:11:53;;;;;;;2.83;2.53;;;17.20;57.10;;;;;;5092967;28;20522;-81
2024/02/28 00:14:20;;;;;;;3.50;2.93;;;17.20;57.10;;;;;;5092919;28;20474;-80
2024/02/28 00:16:47;;;;;;;2.57;2.23;;;17.20;57.10;;;;;;5093024;28;20826;-80
2024/02/28 00:19:15;;;;;;;3.23;2.60;;;17.20;57.10;;;;;;5093185;28;20492;-81
2024/02/28 00:21:42;;;;;;;3.33;2.83;;;17.20;57.10;;;;;;5092919;28;20439;-81
2024/02/28 00:24:10;;;;;;;3.07;2.60;;;17.20;57.10;;;;;;5093681;28;20440;-81
2024/02/28 00:26:38;;;;;;;2.93;2.60;;;17.20;57.10;;;;;;5092880;28;20799;-81
2024/02/28 00:29:05;;;;;;;3.03;2.57;;;17.20;57.10;;;;;;5093022;28;20534;-81
2024/02/28 00:31:32;;;;;;;3.23;2.97;;;17.20;57.60;;;;;;5092576;28;20551;-80
2024/02/28 00:33:58;;;;;;;2.83;2.53;;;17.20;57.10;;;;;;5092817;28;20483;-80
2024/02/28 00:36:25;;;;;;;3.47;3.17;;;17.20;57.00;;;;;;5092848;28;20442;-80
2024/02/28 00:38:52;;;;;;;3.70;3.40;;;17.20;57.10;;;;;;5096250;28;20519;-80
2024/02/28 00:41:20;;;;;;;3.10;2.70;;;17.20;57.00;;;;;;5096363;28;20538;-80
2024/02/28 00:43:47;;;;;;;4.07;2.90;;;17.20;57.60;;;;;;5096724;28;20471;-86
2024/02/28 00:46:14;;;;;;;3.57;2.57;;;17.20;57.10;;;;;;5096638;28;20438;-80
2024/02/28 00:48:41;;;;;;;4.60;3.17;;;17.20;57.10;;;;;;5096347;28;20439;-82
2024/02/28 00:51:08;;;;;;;4.50;2.60;;;17.20;57.00;;;;;;5096462;28;20482;-80
2024/02/28 00:53:35;;;;;;;4.97;3.20;;;17.20;57.00;;;;;;5096109;28;20491;-82
2024/02/28 00:56:02;;;;;;;3.60;2.77;;;17.20;57.10;;;;;;5096538;28;20438;-80
2024/02/28 00:58:30;;;;;;;3.20;2.60;;;17.20;57.00;;;;;;5104029;28;20499;-80
2024/02/28 01:00:57;;;;;;;2.87;2.57;;;17.20;57.00;;;;;;5102054;28;20442;-80
2024/02/28 01:03:24;;;;;;;3.50;2.83;;;17.30;57.10;;;;;;5095792;28;20446;-80
2024/02/28 01:05:51;;;;;;;3.37;2.87;;;17.20;57.00;;;;;;5096073;28;20459;-80
2024/02/28 01:08:18;;;;;;;3.80;3.17;;;17.20;57.00;;;;;;5096101;28;20436;-79
2024/02/28 01:10:45;;;;;;;2.80;2.50;;;17.10;56.90;;;;;;5095740;28;20531;-79
2024/02/28 01:13:12;;;;;;;4.10;3.07;;;17.20;57.00;;;;;;5095741;28;20566;-81
2024/02/28 01:15:41;;;;;;;3.00;2.70;;;17.10;56.90;;;;;;5095753;28;20436;-80
2024/02/28 01:18:08;;;;;;;5.53;2.47;;;17.10;56.90;;;;;;5095748;28;20439;-80
2024/02/28 01:20:34;;;;;;;3.10;2.63;;;17.10;57.50;;;;;;5095662;28;20440;-80
2024/02/28 01:23:01;;;;;;;3.27;2.80;;;17.10;56.90;;;;;;5095454;28;20530;-80
2024/02/28 01:25:28;;;;;;;2.87;2.47;;;17.10;57.00;;;;;;5096419;28;20436;-80
2024/02/28 01:27:56;;;;;;;3.17;2.87;;;17.10;56.90;;;;;;5095415;28;20440;-80
2024/02/28 01:30:23;;;;;;;2.60;2.30;;;17.10;56.90;;;;;;5095288;28;20558;-80
2024/02/28 01:32:51;;;;;;;3.80;2.90;;;17.10;56.90;;;;;;5095451;28;20558;-81
2024/02/28 01:35:18;;;;;;;3.30;3.00;;;17.10;56.90;;;;;;5095507;28;20561;-86
2024/02/28 01:37:45;;;;;;;4.17;3.27;;;17.10;56.90;;;;;;5095244;28;20438;-89
2024/02/28 01:40:13;;;;;;;3.60;2.90;;;17.20;57.00;;;;;;5095752;28;20919;-81
2024/02/28 01:42:40;;;;;;;3.23;2.93;;;17.10;56.90;;;;;;5095579;28;20464;-80
2024/02/28 01:45:08;;;;;;;3.27;2.40;;;17.10;56.90;;;;;;5095836;28;20448;-80
2024/02/28 01:47:35;;;;;;;3.47;2.53;;;17.10;56.90;;;;;;5095086;28;20427;-80
2024/02/28 01:50:04;;;;;;;3.40;3.10;;;17.10;57.50;;;;;;5094215;28;20752;-80
2024/02/28 01:52:31;;;;;;;3.30;2.60;;;17.10;56.90;;;;;;5095038;28;20538;-80
2024/02/28 01:54:58;;;;;;;4.03;3.10;;;17.10;56.90;;;;;;5095402;28;20797;-81
2024/02/28 01:57:25;;;;;;;3.63;3.00;;;17.10;56.90;;;;;;5094952;28;20522;-82
2024/02/28 01:59:54;;;;;;;3.60;2.70;;;17.10;56.90;;;;;;5094826;28;20505;-80
2024/02/28 02:02:21;;;;;;;4.33;3.07;;;17.10;56.90;;;;;;5095063;28;20439;-80
2024/02/28 02:04:48;;;;;;;3.13;2.53;;;17.10;56.90;;;;;;5095139;28;20526;-80
2024/02/28 02:07:16;;;;;;;3.80;2.77;;;17.10;56.90;;;;;;5095114;28;20439;-80
2024/02/28 02:09:43;;;;;;;3.00;2.43;;;17.10;56.90;;;;;;5094656;28;20514;-80
2024/02/28 02:12:10;;;;;;;3.57;2.90;;;17.10;56.80;;;;;;5097167;28;20539;-81
2024/02/28 02:14:36;;;;;;;3.63;3.20;;;17.10;56.90;;;;;;5095017;28;20483;-81
2024/02/28 02:17:03;;;;;;;4.37;2.97;;;17.10;56.90;;;;;;5094748;28;20438;-81
2024/02/28 02:19:30;;;;;;;3.30;2.90;;;17.00;56.80;;;;;;5095069;28;20527;-80
2024/02/28 02:21:59;;;;;;;3.33;2.73;;;17.10;57.40;;;;;;5097697;28;20530;-80
2024/02/28 02:24:27;;;;;;;3.50;3.03;;;17.00;56.80;;;;;;5098471;28;20486;-80
2024/02/28 02:26:57;;;;;;;3.20;2.90;;;17.00;56.80;;;;;;5101491;28;20432;-81
2024/02/28 02:29:24;;;;;;;3.00;2.70;;;17.10;56.90;;;;;;5099770;28;20495;-80
2024/02/28 02:31:50;;;;;;;3.50;2.87;;;17.10;56.90;;;;;;5101359;28;20467;-78
2024/02/28 02:34:17;;;;;;;4.13;3.43;;;17.10;56.80;;;;;;5099605;28;20533;-81
2024/02/28 02:36:44;;;;;;;4.10;3.07;;;17.00;56.70;;;;;;5094479;28;20527;-80
2024/02/28 02:39:11;;;;;;;3.20;2.73;;;17.00;56.80;;;;;;5094368;28;20519;-89
2024/02/28 02:41:40;;;;;;;3.10;2.80;;;17.00;56.70;;;;;;5094092;28;20997;-79
2024/02/28 02:44:09;;;;;;;2.70;2.50;;;17.00;56.80;;;;;;5094002;28;20435;-79
2024/02/28 02:46:36;;;;;;;4.03;2.87;;;17.10;56.80;;;;;;5093925;28;20424;-80
2024/02/28 02:49:03;;;;;;;3.63;3.33;;;17.00;56.70;;;;;;5093930;28;20434;-81
2024/02/28 02:51:30;;;;;;;3.47;2.83;;;17.00;56.70;;;;;;5093953;28;20510;-81
2024/02/28 02:53:57;;;;;;;3.77;3.10;;;17.00;56.70;;;;;;5093637;28;20479;-81
2024/02/28 02:56:23;;;;;;;3.37;3.07;;;17.00;56.70;;;;;;5093876;28;20442;-84
2024/02/28 02:58:51;;;;;;;3.40;3.00;;;17.00;56.70;;;;;;5093732;28;20550;-83
2024/02/28 03:01:19;;;;;;;3.47;2.67;;;17.00;56.70;;;;;;5093461;28;20450;-80
2024/02/28 03:03:46;;;;;;;2.93;2.63;;;17.10;56.80;;;;;;5094003;28;20478;-80
2024/02/28 03:06:14;;;;;;;3.50;2.90;;;17.00;56.70;;;;;;5093733;28;20447;-80
2024/02/28 03:08:41;;;;;;;3.80;2.80;;;17.00;56.70;;;;;;5093831;28;20869;-79
2024/02/28 03:11:08;;;;;;;3.70;2.87;;;17.00;56.70;;;;;;5093404;28;20436;-89
2024/02/28 03:13:35;;;;;;;3.20;2.90;;;17.00;56.70;;;;;;5094998;28;20489;-80
2024/02/28 03:16:04;;;;;;;3.87;3.10;;;17.00;56.70;;;;;;5093495;28;20530;-84
2024/02/28 03:18:31;;;;;;;4.10;3.10;;;17.00;56.80;;;;;;5093633;28;20625;-79
2024/02/28 03:20:59;;;;;;;4.20;2.90;;;17.00;56.70;;;;;;5093790;28;20837;-89
2024/02/28 03:23:26;;;;;;;3.37;3.03;;;17.00;56.70;;;;;;5094047;28;20530;-80
2024/02/28 03:25:53;;;;;;;3.67;2.90;;;17.00;56.70;;;;;;5094043;28;20437;-86
2024/02/28 03:28:20;;;;;;;4.30;3.20;;;17.00;56.80;;;;;;5093910;28;20432;-89
2024/02/28 03:30:46;;;;;;;3.90;3.50;;;17.10;56.80;;;;;;5093501;28;20836;-89
2024/02/28 03:33:15;;;;;;;3.57;3.13;;;17.00;56.70;;;;;;5093721;28;20569;-79
2024/02/28 03:35:41;;;;;;;4.57;3.43;;;17.00;56.80;;;;;;5093819;28;20518;-80
2024/02/28 03:38:08;;;;;;;5.23;3.10;;;17.00;56.70;;;;;;5093565;28;20965;-90
2024/02/28 03:40:35;;;;;;;4.80;3.77;;;17.00;56.70;;;;;;5093459;28;20514;-80
2024/02/28 03:43:02;;;;;;;3.43;3.13;;;17.00;56.70;;;;;;5093694;28;20435;-81
2024/02/28 03:45:29;;;;;;;3.43;3.07;;;17.00;56.80;;;;;;5099359;28;20507;-79
2024/02/28 03:47:56;;;;;;;5.00;3.77;;;17.00;56.80;;;;;;5106161;28;20424;-79
2024/02/28 03:50:24;;;;;;;4.10;3.53;;;17.00;56.70;;;;;;5098229;28;20518;-79
2024/02/28 03:52:51;;;;;;;4.17;3.63;;;17.00;56.70;;;;;;5093185;28;20585;-80
2024/02/28 03:55:18;;;;;;;4.90;3.67;;;16.90;56.70;;;;;;5094058;28;20490;-80
2024/02/28 03:57:48;;;;;;;4.70;3.03;;;17.00;56.80;;;;;;5093679;28;20440;-88
2024/02/28 04:00:16;;;;;;;3.67;2.93;;;16.90;56.70;;;;;;5093042;28;20535;-79
2024/02/28 04:02:42;;;;;;;4.23;3.40;;;17.00;56.80;;;;;;5093621;28;20526;-79
2024/02/28 04:05:09;;;;;;;4.70;3.80;;;17.00;56.80;;;;;;5093669;28;20436;-91
2024/02/28 04:07:38;;;;;;;4.33;3.33;;;16.90;56.70;;;;;;5093809;28;20526;-88
2024/02/28 04:10:05;;;;;;;6.80;4.23;;;16.90;56.70;;;;;;5093955;28;20431;-85
2024/02/28 04:12:32;;;;;;;4.50;3.67;;;16.90;56.70;;;;;;5095744;28;20447;-90
2024/02/28 04:14:59;;;;;;;3.77;3.37;;;16.90;56.70;;;;;;5097813;28;20487;-90
2024/02/28 04:17:26;;;;;;;4.27;3.50;;;16.90;56.70;;;;;;5096996;28;20883;-89
2024/02/28 04:19:53;;;;;;;4.00;3.20;;;16.90;56.70;;;;;;5097819;28;20444;-90
2024/02/28 04:22:20;;;;;;;5.63;3.83;;;16.90;57.30;;;;;;5097020;28;20466;-80
2024/02/28 04:24:48;;;;;;;5.40;3.80;;;16.90;56.70;;;;;;5096904;28;20854;-84
2024/02/28 04:27:15;;;;;;;4.27;3.03;;;16.90;56.70;;;;;;5096732;28;20438;-86
2024/02/28 04:29:42;;;;;;;5.77;3.60;;;16.90;56.70;;;;;;5096122;28;20538;-89
2024/02/28 04:32:09;;;;;;;4.43;3.97;;;16.90;56.70;;;;;;5096441;28;20441;-80
2024/02/28 04:34:40;;;;;;;5.20;4.30;;;16.90;56.70;;;;;;5096649;28;20486;-79
2024/02/28 04:37:07;;;;;;;4.53;3.87;;;16.90;56.70;;;;;;5097453;28;20435;-80
2024/02/28 04:39:34;;;;;;;3.93;3.30;;;17.00;56.80;;;;;;5096525;28;20432;-80
2024/02/28 04:42:02;;;;;;;4.87;3.73;;;16.90;56.70;;;;;;5096201;28;20431;-80
2024/02/28 04:44:29;;;;;;;4.70;3.80;;;16.90;56.70;;;;;;5096366;28;20796;-80
2024/02/28 04:46:56;;;;;;;5.83;4.07;;;16.90;56.70;;;;;;5096417;28;20522;-90
2024/02/28 04:49:23;;;;;;;6.23;4.67;;;16.90;56.70;;;;;;5096579;28;20439;-89
2024/02/28 04:51:50;;;;;;;4.43;3.80;;;16.90;57.30;;;;;;5097020;28;20440;-80
2024/02/28 04:54:17;;;;;;;4.73;3.70;;;16.90;56.70;;;;;;5096458;28;20578;-90
2024/02/28 04:56:44;;;;;;;5.87;3.70;;;16.90;56.70;;;;;;5096685;28;20440;-80
2024/02/28 04:59:13;;;;;;;5.07;3.97;;;16.90;56.70;;;;;;5096446;28;20461;-80
2024/02/28 05:01:42;;;;;;;5.80;3.70;;;16.90;56.70;;;;;;5095789;28;20470;-80
2024/02/28 05:04:09;;;;;;;4.80;4.23;;;16.90;56.70;;;;;;5095957;28;20489;-81
2024/02/28 05:06:36;;;;;;;5.13;4.10;;;16.90;56.70;;;;;;5095842;28;20847;-80
2024/02/28 05:09:04;;;;;;;4.10;3.23;;;16.90;56.80;;;;;;5096418;28;20763;-81
2024/02/28 05:11:32;;;;;;;5.67;4.23;;;16.90;56.70;;;;;;5096332;28;20505;-82
2024/02/28 05:13:59;;;;;;;5.77;4.60;;;16.90;56.70;;;;;;5095506;28;20562;-81
2024/02/28 05:16:27;;;;;;;6.90;4.70;;;16.90;56.70;;;;;;5095648;28;20530;-80
2024/02/28 05:18:54;;;;;;;5.47;4.07;;;16.90;56.70;;;;;;5095839;28;20434;-87
2024/02/28 05:21:21;;;;;;;6.00;4.40;;;16.90;56.70;;;;;;5095568;28;20432;-90
2024/02/28 05:23:48;;;;;;;7.40;3.60;;;16.90;56.70;;;;;;5095602;28;20440;-80
2024/02/28 05:26:14;;;;;;;5.60;4.20;;;16.90;56.80;;;;;;5095484;28;20438;-80
2024/02/28 05:28:41;;;;;;;5.50;3.93;;;16.90;56.80;;;;;;5095356;28;20460;-89
2024/02/28 05:31:21;;;;;;;6.33;4.50;;;16.90;56.70;;;;;;5094959;28;20510;-80
2024/02/28 05:33:51;;;;;;;5.00;4.10;;;16.90;56.70;;;;;;5095469;28;20518;-80
2024/02/28 05:36:18;;;;;;;5.00;3.53;;;16.90;56.80;;;;;;5095205;28;20538;-80
2024/02/28 05:38:45;;;;;;;5.20;4.63;;;16.90;56.80;;;;;;5095197;28;20797;-82
2024/02/28 05:41:11;;;;;;;4.60;3.80;;;16.90;56.80;;;;;;5095102;28;20435;-80
2024/02/28 05:43:38;;;;;;;5.33;3.90;;;16.90;56.80;;;;;;5096282;28;20805;-81
2024/02/28 05:46:05;;;;;;;7.00;4.27;;;16.90;56.80;;;;;;5095076;28;20845;-81
2024/02/28 05:48:32;;;;;;;5.07;4.10;;;16.90;56.80;;;;;;5094875;28;20458;-80
2024/02/28 05:51:02;;;;;;;4.77;4.17;;;16.90;56.80;;;;;;5095098;28;20518;-80
2024/02/28 05:53:32;;;;;;;5.70;3.87;;;16.90;57.30;;;;;;5094704;28;20458;-80
2024/02/28 05:55:59;;;;;;;5.87;4.50;;;16.90;56.80;;;;;;5094783;28;20487;-80
2024/02/28 05:58:26;;;;;;;4.87;3.70;;;16.90;56.80;;;;;;5094966;28;20550;-80
2024/02/28 06:00:53;;;;;;;5.33;4.27;;;16.90;56.80;;;;;;5094940;28;20519;-79
2024/02/28 06:03:20;;;;;;;5.13;4.47;;;16.90;56.80;;;;;;5094852;28;20432;-89
2024/02/28 06:05:47;;;;;;;5.07;4.17;;;16.90;56.80;;;;;;5094619;28;20530;-80
2024/02/28 06:08:15;;;;;;;5.57;4.83;;;16.90;56.80;;;;;;5094864;28;20435;-80
2024/02/28 06:10:43;;;;;;;5.30;3.93;;;16.90;56.80;;;;;;5094587;28;20431;-81
2024/02/28 06:13:10;;;;;;;6.60;5.00;;;16.90;56.80;;;;;;5094956;28;20432;-80
2024/02/28 06:15:37;;;;;;;5.90;4.30;;;16.90;57.40;;;;;;5094244;28;20497;-80
2024/02/28 06:18:04;;;;;;;5.87;4.23;;;16.80;56.70;;;;;;5094972;28;20527;-80
2024/02/28 06:20:31;;;;;;;5.13;4.03;;;16.90;56.80;;;;;;5094721;28;20451;-80
2024/02/28 06:22:58;;;;;;;5.47;4.33;;;16.90;56.80;;;;;;5095246;28;20435;-80
2024/02/28 06:25:28;;;;;;;5.57;3.93;;;16.90;56.80;;;;;;5094927;28;20457;-82
2024/02/28 06:27:54;;;;;;;5.60;4.47;;;16.90;56.80;;;;;;5094796;28;20435;-79
2024/02/28 06:30:21;;;;;;;5.43;4.23;;;16.90;56.80;;;;;;5094116;28;20994;-80
2024/02/28 06:32:48;;;;;;;6.40;5.00;;;16.80;56.70;;;;;;5094612;28;20440;-79
2024/02/28 06:35:16;;;;;;;5.60;4.70;;;16.80;56.80;;;;;;5105596;28;20915;-79
2024/02/28 06:37:48;;;;;;;5.03;4.00;;;16.90;56.80;;;;;;5104781;28;20431;-80
2024/02/28 06:40:15;;;;;;;6.37;4.43;;;16.80;56.70;;;;;;5094400;28;20443;-80
2024/02/28 06:42:43;;;;;;;6.33;4.50;;;16.80;56.70;;;;;;5094242;28;20535;-87
2024/02/28 06:45:10;;;;;;;5.40;4.70;;;16.80;56.70;;;;;;5094132;28;20523;-80
2024/02/28 06:47:37;;;;;;;6.70;5.20;;;16.80;56.70;;;;;;5093689;28;20989;-79
2024/02/28 06:50:05;;;;;;;6.30;4.60;;;16.80;56.70;;;;;;5093814;28;20432;-80
2024/02/28 06:52:31;;;;;;;4.70;4.10;;;16.80;56.80;;;;;;5093866;28;20439;-81
2024/02/28 06:54:59;;;;;;;5.80;5.20;;;16.80;56.80;;;;;;5094428;28;20574;-83
2024/02/28 06:57:26;;;;;;;5.43;4.43;;;16.80;56.80;;;;;;5094577;28;20435;-80
2024/02/28 06:59:54;;;;;;;6.60;4.93;;;16.80;56.80;;;;;;5094090;28;20460;-80
2024/02/28 07:02:21;;;;;;;5.43;4.70;;;16.80;56.90;;;;;;5094013;28;20457;-79
2024/02/28 07:04:48;;;;;;;4.80;3.80;;;16.80;56.80;;;;;;5094019;28;20436;-88
2024/02/28 07:07:15;;;;;;;5.00;4.40;;;16.80;56.80;;;;;;5093763;28;20442;-81
2024/02/28 07:09:42;;;;;;;5.20;4.23;;;16.80;56.80;;;;;;5093585;28;20435;-80
2024/02/28 07:12:09;;;;;;;5.70;4.00;;;16.90;56.90;;;;;;5093714;28;20461;-80
2024/02/28 07:14:36;;;;;;;6.00;4.70;;;16.80;56.80;;;;;;5093408;28;20897;-81
2024/02/28 07:17:06;;;;;;;5.30;4.20;;;16.80;56.80;;;;;;5093338;28;20862;-80
2024/02/28 07:19:33;;;;;;;5.53;4.43;;;16.80;56.80;;;;;;5093918;28;20439;-88
2024/02/28 07:22:00;;;;;;;5.47;4.17;;;16.80;56.80;;;;;;5093763;28;20439;-80
2024/02/28 07:24:27;;;;;;;6.87;4.87;;;16.80;56.80;;;;;;5093751;28;20440;-90
2024/02/28 07:26:53;;;;;;;5.63;4.60;;;16.80;56.80;;;;;;5093192;28;20442;-89
2024/02/28 07:29:20;;;;;;;5.77;4.93;;;16.80;56.80;;;;;;5093674;28;21044;-79
2024/02/28 07:31:49;;;;;;;5.03;3.87;;;16.80;56.80;;;;;;5093854;28;20485;-80
2024/02/28 07:34:17;;;;;;;5.70;4.30;;;16.80;56.80;;;;;;5093826;28;20439;-80
2024/02/28 07:36:44;;;;;;;5.30;4.40;;;16.80;56.80;;;;;;5093538;28;20439;-80
2024/02/28 07:39:12;;;;;;;6.87;5.43;;;16.80;56.80;;;;;;5093313;28;20431;-80
2024/02/28 07:41:39;;;;;;;4.53;4.10;;;16.80;56.80;;;;;;5093343;28;20857;-80
2024/02/28 07:44:07;;;;;;;6.10;4.80;;;16.80;56.80;;;;;;5093391;28;20440;-88
2024/02/28 07:46:33;;;;;;;7.70;5.93;;;16.80;56.80;;;;;;5093956;28;20810;-85
2024/02/28 07:49:01;;;;;;;6.03;4.87;;;16.80;56.80;;;;;;5098921;28;20435;-79
2024/02/28 07:51:29;;;;;;;4.80;4.30;;;16.80;56.80;;;;;;5097787;28;20427;-80
2024/02/28 07:53:56;;;;;;;5.30;4.37;;;16.80;56.80;;;;;;5097773;28;20989;-88
2024/02/28 07:56:23;;;;;;;5.60;4.43;;;16.80;56.80;;;;;;5097570;28;20487;-80
2024/02/28 07:58:49;;;;;;;5.93;4.53;;;16.80;56.80;;;;;;5097894;28;20454;-88
2024/02/28 08:01:16;;;;;;;4.60;4.10;;;16.80;56.80;;;;;;5097212;28;20435;-81
2024/02/28 08:03:43;;;;;;;4.00;3.57;;;16.80;56.80;;;;;;5097058;28;20436;-81
2024/02/28 08:06:11;;;;;;;7.37;4.67;;;16.80;56.80;;;;;;5097292;28;20435;-81
2024/02/28 08:08:39;;;;;;;5.27;4.37;;;16.90;56.80;;;;;;5097261;28;20443;-81
2024/02/28 08:11:06;;;;;;;6.83;4.53;;;16.80;56.80;;;;;;5103089;28;20434;-79
2024/02/28 08:13:33;;;;;;;5.13;4.37;;;16.80;56.80;;;;;;5102826;28;20463;-80
2024/02/28 08:16:00;;;;;;;6.73;4.80;;;16.80;56.80;;;;;;5101123;28;20565;-80
2024/02/28 08:18:28;;;;;;;5.10;4.33;;;16.80;56.80;;;;;;5100789;28;20433;-78
2024/02/28 08:20:57;;;;;;;5.20;4.17;;;16.90;56.80;;;;;;5097489;28;20432;-80
2024/02/28 08:23:24;;;;;;;6.20;4.90;;;16.80;56.80;;;;;;5097129;28;20448;-81
2024/02/28 08:25:52;;;;;;;5.40;4.67;;;16.90;56.90;;;;;;5096752;28;20439;-81
2024/02/28 08:28:19;;;;;;;5.30;3.80;;;16.80;56.80;;;;;;5096258;28;20447;-80
2024/02/28 08:30:46;;;;;;;4.93;3.73;;;16.90;56.90;;;;;;5096359;28;20833;-81
2024/02/28 08:33:13;;;;;;;5.40;4.40;;;16.90;56.80;;;;;;5096447;28;20830;-80
2024/02/28 08:35:40;;;;;;;6.27;4.73;;;16.90;56.90;;;;;;5096325;28;20490;-81
2024/02/28 08:38:07;;;;;;;6.27;4.70;;;16.90;56.80;;;;;;5096473;28;20518;-88
2024/02/28 08:40:33;;;;;;;5.67;4.77;;;16.90;56.80;;;;;;5096171;28;20436;-81
2024/02/28 08:43:01;;;;;;;6.03;4.03;;;16.90;56.80;;;;;;5096247;28;20950;-81
2024/02/28 08:45:28;;;;;;;5.20;4.47;;;16.90;56.90;;;;;;5096399;28;20445;-82
2024/02/28 08:47:57;;;;;;;6.40;5.03;;;16.90;57.40;;;;;;5096285;28;20531;-81
2024/02/28 08:50:24;;;;;;;5.47;3.93;;;16.90;56.80;;;;;;5096100;28;20447;-81
2024/02/28 08:52:51;;;;;;;6.10;4.20;;;16.90;56.80;;;;;;5095996;28;20459;-81
2024/02/28 08:55:19;;;;;;;5.27;4.10;;;16.90;57.40;;;;;;5096107;28;20481;-81
2024/02/28 08:57:46;;;;;;;5.73;4.27;;;16.90;56.80;;;;;;5095525;28;20447;-81
2024/02/28 09:00:16;;;;;;;5.50;4.20;;;16.90;56.80;;;;;;5095914;28;20466;-81
2024/02/28 09:02:43;;;;;;;5.73;4.50;;;16.90;56.80;;;;;;5095993;28;20438;-81
2024/02/28 09:05:10;;;;;;;4.53;3.90;;;16.90;56.80;;;;;;5095752;28;20440;-81
2024/02/28 09:07:37;;;;;;;5.30;3.57;;;17.00;56.90;;;;;;5095683;28;20513;-81
2024/02/28 09:10:06;;;;;;;6.20;4.50;;;16.90;56.80;;;;;;5095573;28;20930;-81
2024/02/28 09:12:33;;;;;;;5.73;4.90;;;16.90;56.80;;;;;;5095716;28;20435;-80
2024/02/28 09:14:59;;;;;;;5.37;4.33;;;16.90;56.80;;;;;;5095552;28;20973;-80
2024/02/28 09:17:28;;;;;;;5.83;4.50;;;16.90;57.40;;;;;;5095656;28;20431;-81
2024/02/28 09:19:54;;;;;;;4.33;3.70;;;16.90;56.70;;;;;;5095451;28;20435;-89
2024/02/28 09:22:23;;;;;;;5.07;4.37;;;16.90;56.70;;;;;;5095830;28;20442;-84
2024/02/28 09:24:50;;;;;;;7.20;5.60;;;16.90;56.70;;;;;;5106169;28;20859;-81
2024/02/28 09:27:18;;;;;;;4.27;3.50;;;16.90;56.70;;;;;;5101570;28;20512;-81
2024/02/28 09:29:44;;;;;;;5.07;4.30;;;16.90;56.70;;;;;;5095212;28;20459;-88
2024/02/28 09:32:11;;;;;;;4.80;4.23;;;17.00;56.80;;;;;;5095498;28;20866;-81
2024/02/28 09:34:40;;;;;;;4.70;3.77;;;17.00;56.80;;;;;;5095716;28;20523;-81
2024/02/28 09:37:09;;;;;;;5.50;4.40;;;17.00;56.70;;;;;;5095427;28;20517;-81
2024/02/28 09:39:39;;;;;;;4.40;3.73;;;17.00;56.70;;;;;;5095502;28;20809;-90
2024/02/28 09:42:07;;;;;;;5.93;4.20;;;17.00;56.60;;;;;;5095475;28;20860;-84
2024/02/28 09:44:35;;;;;;;6.13;5.00;;;17.00;56.60;;;;;;5095385;28;20435;-80
2024/02/28 09:47:02;;;;;;;4.87;4.20;;;17.00;56.60;;;;;;5095353;28;20435;-81
2024/02/28 09:49:31;;;;;;;6.80;4.50;;;17.00;56.60;;;;;;5095388;28;21020;-81
2024/02/28 09:52:00;;;;;;;6.17;4.87;;;17.10;56.60;;;;;;5095115;28;20434;-85
2024/02/28 09:54:27;;;;;;;5.30;4.27;;;17.10;56.60;;;;;;5094875;28;20444;-80
2024/02/28 09:56:55;;;;;;;7.20;5.30;;;17.10;56.60;;;;;;5094960;28;20487;-80
2024/02/28 09:59:24;;;;;;;5.17;4.07;;;17.00;56.50;;;;;;5095116;28;20539;-80
2024/02/28 10:01:56;;;;;;;5.83;5.17;;;17.10;56.60;;;;;;5094825;28;20440;-80
2024/02/28 10:04:24;;;;;;;6.03;5.00;;;17.00;56.50;;;;;;5094978;28;20518;-81
2024/02/28 10:06:51;;;;;;;6.00;4.80;;;17.00;56.60;;;;;;5094692;28;20435;-79
2024/02/28 10:09:19;;;;;;;4.80;4.07;;;17.00;56.60;;;;;;5094153;28;20526;-79
2024/02/28 10:11:47;;;;;;;4.70;4.10;;;17.00;56.60;;;;;;5094418;28;20439;-81
2024/02/28 10:14:19;;;;;;;5.73;4.40;;;17.00;56.60;;;;;;5094616;28;20926;-88
2024/02/28 10:16:46;;;;;;;5.37;4.07;;;17.10;56.70;;;;;;5094333;28;20487;-80
2024/02/28 10:19:13;;;;;;;4.33;3.80;;;17.00;56.60;;;;;;5094270;28;20428;-83
2024/02/28 10:21:40;;;;;;;4.10;3.33;;;17.10;56.70;;;;;;5094367;28;20526;-81
2024/02/28 10:24:07;;;;;;;4.37;3.60;;;17.10;56.60;;;;;;5094479;28;20439;-81
2024/02/28 10:26:43;;;;;;;5.00;4.07;;;17.10;56.60;;;;;;5094843;28;20540;-84
2024/02/28 10:29:10;;;;;;;5.70;3.93;;;17.10;56.60;;;;;;5094481;28;20451;-85
2024/02/28 10:31:37;;;;;;;6.23;5.23;;;17.10;56.60;;;;;;5094199;28;20531;-81
2024/02/28 10:34:05;;;;;;;5.73;4.40;;;17.10;56.60;;;;;;5094579;28;21009;-80
2024/02/28 10:36:33;;;;;;;5.63;4.73;;;17.10;56.70;;;;;;5094358;28;20498;-85
2024/02/28 10:39:01;;;;;;;5.30;4.33;;;17.10;56.70;;;;;;5094653;28;20442;-81
2024/02/28 10:41:29;;;;;;;5.20;3.80;;;17.10;56.80;;;;;;5094253;28;20431;-82
2024/02/28 10:43:58;;;;;;;4.27;3.87;;;17.10;56.80;;;;;;5094373;28;20528;-81
2024/02/28 10:46:25;;;;;;;4.30;3.63;;;17.20;57.40;;;;;;5095707;28;20531;-89
2024/02/28 10:48:54;;;;;;;5.43;4.07;;;17.20;56.80;;;;;;5095061;28;20435;-81
2024/02/28 10:51:24;;;;;;;3.90;3.50;;;17.20;57.50;;;;;;5094166;28;20443;-88
2024/02/28 10:53:53;;;;;;;4.50;3.33;;;17.20;56.90;;;;;;5094253;28;20440;-89
2024/02/28 10:56:20;;;;;;;8.00;4.20;;;17.20;56.80;;;;;;5094009;28;20483;-81
2024/02/28 10:58:52;;;;;;;4.83;3.77;;;17.20;56.90;;;;;;5093952;28;20821;-85
2024/02/28 11:01:21;;;;;;;5.90;4.37;;;17.20;56.90;;;;;;5094117;28;20435;-89
2024/02/28 11:03:49;;;;;;;3.40;3.10;;;17.20;56.90;;;;;;5093923;28;20435;-80
2024/02/28 11:06:21;;;;;;;5.07;3.83;;;17.20;57.00;;;;;;5094038;28;20814;-82
2024/02/28 11:08:52;;;;;;;5.03;4.13;;;17.30;57.10;;;;;;5093689;28;20436;-85
2024/02/28 11:11:20;;;;;;;5.03;4.03;;;17.30;57.00;;;;;;5093688;28;20509;-89
2024/02/28 11:13:53;;;;;;;4.43;3.50;;;17.30;57.00;;;;;;5093831;28;20526;-84
2024/02/28 11:16:27;;;;;;;4.40;3.50;;;17.40;57.00;;;;;;5093568;28;20483;-80
2024/02/28 11:18:54;;;;;;;4.37;3.43;;;17.40;56.90;;;;;;5093469;28;20436;-83
2024/02/28 11:21:25;;;;;;;4.93;3.77;;;17.50;57.00;;;;;;5093254;28;20442;-88
2024/02/28 11:23:53;;;;;;;4.00;3.60;;;17.40;56.90;;;;;;5093432;28;20438;-88
2024/02/28 11:26:21;;;;;;;4.60;4.00;;;17.50;57.10;;;;;;5093390;28;21005;-80
2024/02/28 11:28:48;;;;;;;4.43;3.70;;;17.40;57.00;;;;;;5093363;28;20463;-87
2024/02/28 11:31:16;;;;;;;4.40;3.53;;;17.40;57.10;;;;;;5093032;28;20477;-80
2024/02/28 11:33:44;;;;;;;4.07;3.60;;;17.40;57.00;;;;;;5093409;28;20465;-80
2024/02/28 11:36:13;;;;;;;5.10;3.53;;;17.50;57.10;;;;;;5093462;28;20493;-80
2024/02/28 11:38:39;;;;;;;3.80;3.17;;;17.50;57.20;;;;;;5093587;28;20435;-80
2024/02/28 11:41:07;;;;;;;4.90;3.87;;;17.40;57.10;;;;;;5093192;28;20435;-79
2024/02/28 11:43:34;;;;;;;5.03;3.50;;;17.40;57.20;;;;;;5093361;28;20789;-80
2024/02/28 11:46:01;;;;;;;4.57;3.90;;;17.50;57.30;;;;;;5093285;28;20508;-80
2024/02/28 11:48:28;;;;;;;5.30;4.33;;;17.50;57.30;;;;;;5093003;28;20981;-81
2024/02/28 11:50:58;;;;;;;4.60;3.80;;;17.50;57.30;;;;;;5093218;28;20439;-81
2024/02/28 11:53:27;;;;;;;4.70;3.80;;;17.50;57.30;;;;;;5092986;28;20443;-80
2024/02/28 11:55:55;;;;;;;4.57;3.33;;;17.50;57.30;;;;;;5093071;28;20478;-81
2024/02/28 11:58:22;;;;;;;4.60;3.43;;;17.60;57.40;;;;;;5092898;28;20459;-80
2024/02/28 12:00:49;;;;;;;5.60;4.57;;;17.60;57.30;;;;;;5092895;28;20466;-88
2024/02/28 12:03:22;;;;;;;4.47;3.80;;;17.70;57.50;;;;;;5093135;28;20431;-80
2024/02/28 12:05:50;;;;;;;4.87;4.03;;;17.60;57.40;;;;;;5093032;28;20796;-80
2024/02/28 12:08:19;;;;;;;4.90;4.40;;;17.60;57.50;;;;;;5093207;28;20428;-80
2024/02/28 12:10:46;;;;;;;3.70;3.00;;;17.70;57.50;;;;;;5092865;28;20436;-80
2024/02/28 12:13:16;;;;;;;4.67;3.83;;;17.60;57.50;;;;;;5101111;28;20464;-80
2024/02/28 12:15:43;;;;;;;4.33;3.93;;;17.80;57.70;;;;;;5100162;28;20440;-81
2024/02/28 12:18:10;;;;;;;3.90;3.40;;;17.70;57.60;;;;;;5093767;28;20539;-81
2024/02/28 12:20:38;;;;;;;4.70;3.57;;;17.70;57.60;;;;;;5092847;28;20447;-80
2024/02/28 12:23:05;;;;;;;4.80;4.00;;;17.70;57.70;;;;;;5092811;28;20946;-79
2024/02/28 12:25:34;;;;;;;4.67;4.03;;;17.70;57.70;;;;;;5092720;28;20930;-80
2024/02/28 12:28:01;;;;;;;6.00;4.20;;;17.80;57.70;;;;;;5092573;28;20522;-80
2024/02/28 12:30:28;;;;;;;4.60;3.53;;;17.70;57.70;;;;;;5092499;28;20561;-89
2024/02/28 12:32:55;;;;;;;5.03;4.10;;;17.80;57.80;;;;;;5093496;28;20439;-84
2024/02/28 12:35:21;;;;;;;5.00;4.07;;;17.80;57.70;;;;;;5096592;28;20498;-80
2024/02/28 12:37:48;;;;;;;4.27;3.87;;;18.00;57.90;;;;;;5098728;28;20459;-88
2024/02/28 12:40:17;;;;;;;4.93;4.00;;;17.80;57.80;;;;;;5096449;28;20432;-82
2024/02/28 12:42:45;;;;;;;4.20;3.40;;;17.90;57.80;;;;;;5096373;28;20522;-81
2024/02/28 12:45:12;;;;;;;3.47;3.17;;;17.90;57.80;;;;;;5096234;28;20795;-90
2024/02/28 12:47:40;;;;;;;3.80;3.37;;;17.90;57.90;;;;;;5096153;28;20522;-87
2024/02/28 12:50:09;;;;;;;3.83;3.43;;;18.00;57.90;;;;;;5096179;28;20522;-82